Time;durP1;ratioP1;P1;durP2;ratioP2;P2;SDS_P1;SDS_P2;PMS_P1;PMS_P2;Temp;Humidity;BMP_temperature;BMP_pressure;BME280_temperature;BME280_humidity;BME280_pressure;Samples;Min_cycle;Max_cycle;Signal;HPM_P1;HPM_P2
2021/06/02 00:00:01;;;;;;;;;7.75;7.75;;;;;20.30;52.84;100882.06;4904861;29;45356;-83
2021/06/02 00:02:27;;;;;;;;;10.00;9.75;;;;;20.26;53.75;100883.25;4905565;28;45484;-81
2021/06/02 00:04:52;;;;;;;;;11.00;9.25;;;;;20.22;52.93;100879.94;4904588;29;46372;-82
2021/06/02 00:07:23;;;;;;;;;8.25;7.50;;;;;20.19;53.78;100877.50;4905328;28;45417;-81
2021/06/02 00:09:52;;;;;;;;;9.50;7.50;;;;;20.17;53.85;100876.78;4906153;28;45493;-82
2021/06/02 00:12:18;;;;;;;;;9.25;9.25;;;;;20.12;53.83;100874.41;4905056;28;45620;-82
2021/06/02 00:14:44;;;;;;;;;6.75;6.75;;;;;20.08;53.96;100880.91;4905717;28;45481;-82
2021/06/02 00:17:10;;;;;;;;;7.75;7.25;;;;;20.03;53.73;100869.69;4905891;28;45242;-82
2021/06/02 00:19:36;;;;;;;;;8.75;7.50;;;;;19.97;54.05;100884.34;4905347;28;45386;-83
2021/06/02 00:22:03;;;;;;;;;10.75;7.25;;;;;19.94;54.05;100875.69;4904747;29;45267;-83
2021/06/02 00:24:29;;;;;;;;;9.25;8.00;;;;;19.87;54.31;100875.28;4905818;28;46303;-83
2021/06/02 00:26:57;;;;;;;;;8.50;8.00;;;;;19.85;54.55;100872.72;4904835;28;45493;-81
2021/06/02 00:29:30;;;;;;;;;7.75;7.75;;;;;19.83;54.28;100871.97;4905862;28;45254;-80
2021/06/02 00:31:56;;;;;;;;;9.50;8.25;;;;;19.81;54.65;100875.72;4905181;28;45459;-80
2021/06/02 00:34:22;;;;;;;;;9.75;9.75;;;;;19.79;55.18;100868.69;4905361;28;46118;-81
2021/06/02 00:36:49;;;;;;;;;8.25;7.00;;;;;19.77;55.01;100877.75;4903532;28;45332;-80
2021/06/02 00:39:15;;;;;;;;;10.25;9.00;;;;;19.76;55.23;100882.22;4904153;29;45446;-80
2021/06/02 00:41:43;;;;;;;;;9.50;9.25;;;;;19.75;55.30;100882.34;4905179;29;45512;-80
2021/06/02 00:44:12;;;;;;;;;7.25;7.25;;;;;19.74;54.81;100889.47;4904917;28;46104;-80
2021/06/02 00:46:38;;;;;;;;;8.50;8.00;;;;;19.73;55.07;100882.44;4905231;28;45373;-82
2021/06/02 00:49:06;;;;;;;;;7.75;6.75;;;;;19.71;55.32;100892.34;4903854;29;45271;-82
2021/06/02 00:51:35;;;;;;;;;10.25;9.75;;;;;19.68;55.46;100889.91;4904003;29;46299;-83
2021/06/02 00:54:01;;;;;;;;;7.50;7.25;;;;;19.63;56.69;100884.88;4905101;28;45509;-82
2021/06/02 00:56:36;;;;;;;;;10.75;10.00;;;;;19.59;55.47;100893.22;4904193;28;45335;-82
2021/06/02 00:59:03;;;;;;;;;8.00;7.00;;;;;19.54;56.20;100890.88;4904377;28;45480;-82
2021/06/02 01:01:35;;;;;;;;;8.75;8.25;;;;;19.47;55.95;100890.44;4903782;29;46749;-82
2021/06/02 01:04:02;;;;;;;;;11.00;11.00;;;;;19.42;56.79;100887.22;4904755;28;45526;-83
2021/06/02 01:06:29;;;;;;;;;8.00;7.25;;;;;19.37;57.45;100879.56;4919500;28;45404;-83
2021/06/02 01:08:59;;;;;;;;;10.50;9.00;;;;;19.33;57.16;100883.41;4905112;28;45299;-80
2021/06/02 01:11:28;;;;;;;;;12.00;11.25;;;;;19.29;56.78;100888.06;4904294;28;45385;-80
2021/06/02 01:13:57;;;;;;;;;8.75;6.75;;;;;19.25;56.45;100886.56;4904677;28;45642;-78
2021/06/02 01:16:26;;;;;;;;;11.50;9.50;;;;;19.23;57.33;100877.84;4904826;28;45652;-79
2021/06/02 01:18:51;;;;;;;;;10.50;9.75;;;;;19.21;57.80;100882.44;4904486;29;45503;-79
2021/06/02 01:21:23;;;;;;;;;10.00;10.00;;;;;19.16;57.24;100877.34;4904835;28;45605;-79
2021/06/02 01:23:51;;;;;;;;;10.25;9.00;;;;;19.12;57.57;100878.53;4904752;28;45360;-79
2021/06/02 01:26:18;;;;;;;;;9.25;9.25;;;;;19.06;58.39;100877.13;4904376;28;45942;-79
2021/06/02 01:28:43;;;;;;;;;12.00;9.00;;;;;19.01;58.07;100873.94;4904579;28;45319;-79
2021/06/02 01:31:14;;;;;;;;;11.50;10.25;;;;;18.97;59.57;100872.41;4919311;28;46278;-79
2021/06/02 01:33:55;;;;;;;;;10.75;9.75;;;;;18.93;58.83;100876.25;4903783;28;46277;-79
2021/06/02 01:36:48;;;;;;;;;8.75;8.00;;;;;18.92;59.04;100887.84;4902670;29;45893;-78
2021/06/02 01:39:51;;;;;;;;;10.75;8.50;;;;;18.86;58.66;100875.81;4904461;28;45303;-79
2021/06/02 01:42:24;;;;;;;;;9.00;7.75;;;;;18.82;59.27;100887.59;4904082;28;45247;-79
2021/06/02 01:44:53;;;;;;;;;9.00;9.00;;;;;18.77;59.14;100888.75;4918321;28;47473;-79
2021/06/02 01:47:29;;;;;;;;;8.25;8.25;;;;;18.74;59.41;100896.09;4904207;29;45707;-79
2021/06/02 01:50:18;;;;;;;;;11.50;8.00;;;;;18.67;59.09;100887.66;4904170;28;45520;-79
2021/06/02 01:53:12;;;;;;;;;13.00;8.50;;;;;18.62;59.40;100885.28;4903758;28;45523;-78
2021/06/02 01:55:46;;;;;;;;;10.25;8.50;;;;;18.61;59.27;100888.06;4904080;29;45279;-78
2021/06/02 01:58:39;;;;;;;;;10.25;9.00;;;;;18.62;60.47;100890.59;4904228;29;45522;-78
2021/06/02 02:01:10;;;;;;;;;8.00;8.00;;;;;18.55;60.16;100878.66;4904034;28;45769;-78
2021/06/02 02:03:54;;;;;;;;;8.00;8.00;;;;;18.51;59.33;100883.34;4902167;29;46248;-78
2021/06/02 02:06:23;;;;;;;;;10.50;7.50;;;;;18.50;60.62;100880.75;4894244;29;45484;-78
2021/06/02 02:09:06;;;;;;;;;13.25;9.00;;;;;18.50;60.28;100876.28;4903968;29;45393;-78
2021/06/02 02:11:35;;;;;;;;;7.00;7.00;;;;;18.50;59.97;100878.09;4903193;29;45587;-80
2021/06/02 02:14:46;;;;;;;;;9.00;9.00;;;;;18.53;59.46;100884.09;4904188;28;45220;-81
2021/06/02 02:17:48;;;;;;;;;10.50;10.50;;;;;18.59;60.37;100889.97;4903981;28;45399;-80
2021/06/02 02:20:29;;;;;;;;;10.25;10.25;;;;;18.58;59.80;100881.13;4917641;28;45556;-81
2021/06/02 02:23:25;;;;;;;;;12.00;10.75;;;;;18.61;60.16;100880.06;4904018;28;45353;-81
2021/06/02 02:26:35;;;;;;;;;12.00;10.25;;;;;18.62;60.21;100885.28;4902514;29;46005;-81
2021/06/02 02:29:24;;;;;;;;;9.00;7.75;;;;;18.62;59.73;100885.28;4893454;29;45950;-81
2021/06/02 02:32:13;;;;;;;;;10.75;9.50;;;;;18.61;59.54;100896.91;4903318;29;45238;-78
2021/06/02 02:34:56;;;;;;;;;9.00;9.00;;;;;18.60;60.31;100894.31;4898599;29;45373;-78
2021/06/02 02:37:44;;;;;;;;;9.00;9.00;;;;;18.59;60.04;100892.63;4914585;28;46118;-78
2021/06/02 02:40:23;;;;;;;;;12.75;10.75;;;;;18.58;60.11;100899.75;4896965;29;45516;-78
2021/06/02 02:42:59;;;;;;;;;10.25;9.00;;;;;18.56;60.26;100885.69;4917656;28;45352;-78
2021/06/02 02:45:36;;;;;;;;;10.75;9.50;;;;;18.53;60.09;100885.91;4903777;29;45437;-79
2021/06/02 02:48:19;;;;;;;;;8.50;8.50;;;;;18.55;60.17;100889.31;4903851;28;45455;-79
2021/06/02 02:51:01;;;;;;;;;8.50;8.00;;;;;18.59;59.45;100884.66;4900766;29;48425;-79
2021/06/02 02:53:49;;;;;;;;;10.75;9.25;;;;;18.65;60.19;100889.56;4903736;28;45330;-79
2021/06/02 02:56:22;;;;;;;;;9.25;9.00;;;;;18.65;60.32;100884.25;4903390;28;45471;-79
2021/06/02 02:59:03;;;;;;;;;10.25;8.50;;;;;18.63;59.95;100881.69;4903536;28;45270;-79
2021/06/02 03:01:55;;;;;;;;;8.75;8.00;;;;;18.64;59.36;100883.38;4892440;29;45385;-79
2021/06/02 03:04:30;;;;;;;;;10.75;10.50;;;;;18.67;60.30;100887.66;4903002;28;45619;-80
2021/06/02 03:07:02;;;;;;;;;8.50;8.00;;;;;18.66;60.15;100888.63;4914149;28;45199;-78
2021/06/02 03:09:36;;;;;;;;;10.50;10.00;;;;;18.63;60.13;100880.81;4889465;29;46063;-79
2021/06/02 03:12:26;;;;;;;;;9.25;9.25;;;;;18.62;60.16;100885.28;4902931;28;46768;-80
2021/06/02 03:14:54;;;;;;;;;9.75;9.75;;;;;18.59;60.21;100896.16;4917829;28;45199;-80
2021/06/02 03:17:30;;;;;;;;;12.25;11.00;;;;;18.54;60.74;100895.59;4903300;29;45309;-80
2021/06/02 03:19:58;;;;;;;;;11.25;10.00;;;;;18.49;61.20;100901.22;4913430;28;46623;-79
2021/06/02 03:22:29;;;;;;;;;9.00;8.00;;;;;18.43;60.54;100897.13;4904192;28;45504;-80
2021/06/02 03:25:05;;;;;;;;;10.50;9.25;;;;;18.43;60.63;100902.47;4901934;29;45444;-79
2021/06/02 03:27:34;;;;;;;;;9.25;9.25;;;;;18.40;60.72;100897.31;4903246;28;45373;-80
2021/06/02 03:30:09;;;;;;;;;6.75;6.50;;;;;18.39;60.51;100887.66;4902893;29;45271;-80
2021/06/02 03:32:51;;;;;;;;;9.00;9.00;;;;;18.40;60.57;100891.16;4917128;28;47492;-80
2021/06/02 03:35:30;;;;;;;;;10.75;10.75;;;;;18.38;60.93;100893.91;4902760;28;45246;-79
2021/06/02 03:38:08;;;;;;;;;12.25;8.00;;;;;18.36;61.28;100886.97;4902883;29;45398;-78
2021/06/02 03:40:52;;;;;;;;;9.25;9.25;;;;;18.33;61.39;100888.88;4900768;29;45576;-79
2021/06/02 03:43:27;;;;;;;;;9.25;8.25;;;;;18.31;61.71;100887.28;4902677;29;46214;-79
2021/06/02 03:46:23;;;;;;;;;9.25;9.25;;;;;18.26;61.22;100882.25;4901156;29;45753;-79
2021/06/02 03:49:12;;;;;;;;;11.75;10.75;;;;;18.25;60.96;100893.00;4901418;29;45287;-79
2021/06/02 03:51:57;;;;;;;;;10.25;9.25;;;;;18.26;60.99;100894.69;4902730;29;45464;-80
2021/06/02 03:54:47;;;;;;;;;9.75;9.00;;;;;18.24;61.60;100894.81;4902285;29;45368;-80
2021/06/02 03:57:28;;;;;;;;;11.25;11.25;;;;;18.18;61.84;100892.47;4916877;28;45331;-80
2021/06/02 04:00:18;;;;;;;;;10.75;9.50;;;;;18.14;61.73;100891.84;4901779;29;45337;-79
2021/06/02 04:03:02;;;;;;;;;11.25;9.25;;;;;18.08;61.25;100895.72;4901746;29;45282;-80
2021/06/02 04:05:47;;;;;;;;;11.25;11.25;;;;;18.08;62.20;100886.88;4901995;29;45241;-80
2021/06/02 04:08:28;;;;;;;;;10.00;9.25;;;;;18.04;62.40;100901.34;4902316;28;45433;-79
2021/06/02 04:11:31;;;;;;;;;11.00;10.25;;;;;18.02;62.15;100898.78;4902666;29;45475;-80
2021/06/02 04:14:01;;;;;;;;;12.00;11.50;;;;;18.03;62.37;100896.94;4901323;29;47210;-84
2021/06/02 04:16:38;;;;;;;;;9.50;9.50;;;;;18.03;62.55;100899.59;4900859;29;47761;-85
2021/06/02 04:19:08;;;;;;;;;11.00;9.00;;;;;18.02;62.43;100898.78;4900322;29;45966;-81
2021/06/02 04:21:36;;;;;;;;;11.25;10.75;;;;;18.02;62.17;100905.91;4907561;28;45285;-81
2021/06/02 04:24:11;;;;;;;;;8.25;8.25;;;;;18.06;62.07;100907.41;4909264;28;45255;-82
2021/06/02 04:26:37;;;;;;;;;13.75;11.75;;;;;18.10;62.38;100907.13;4900615;29;48710;-82
2021/06/02 04:29:10;;;;;;;;;12.00;10.25;;;;;18.14;62.04;100902.47;4901867;28;45643;-82
2021/06/02 04:31:37;;;;;;;;;15.00;11.75;;;;;18.16;62.62;100900.56;4900938;29;45265;-79
2021/06/02 04:34:03;;;;;;;;;12.25;11.25;;;;;18.14;62.46;100897.16;4903178;28;45220;-79
2021/06/02 04:36:30;;;;;;;;;10.50;10.50;;;;;18.15;61.95;100906.81;4905486;29;45451;-79
2021/06/02 04:38:58;;;;;;;;;10.75;10.75;;;;;18.20;62.58;100906.56;4904958;28;45362;-80
2021/06/02 04:41:28;;;;;;;;;12.50;10.75;;;;;18.22;61.46;100916.16;4905585;28;45351;-82
2021/06/02 04:43:56;;;;;;;;;11.75;11.75;;;;;18.28;61.79;100903.41;4905219;29;45292;-83
2021/06/02 04:46:21;;;;;;;;;12.00;11.50;;;;;18.31;61.87;100900.56;4904212;29;47181;-83
2021/06/02 04:48:47;;;;;;;;;12.00;11.25;;;;;18.36;62.09;100911.78;4904529;28;45370;-83
2021/06/02 04:51:32;;;;;;;;;14.25;12.00;;;;;18.39;62.29;100913.41;4904792;28;45386;-79
2021/06/02 04:54:30;;;;;;;;;9.00;8.25;;;;;18.41;61.45;100903.50;4904989;28;45510;-79
2021/06/02 04:57:17;;;;;;;;;9.50;8.50;;;;;18.50;60.06;100923.34;4918684;28;48658;-78
2021/06/02 05:00:22;;;;;;;;;12.75;11.25;;;;;18.63;60.90;100926.06;4905130;29;45644;-78
2021/06/02 05:03:25;;;;;;;;;10.00;10.00;;;;;18.70;59.91;100921.19;4904432;29;45406;-78
2021/06/02 05:06:24;;;;;;;;;9.50;9.25;;;;;18.78;60.44;100934.88;4903262;29;45204;-79
2021/06/02 05:09:25;;;;;;;;;9.75;9.75;;;;;18.82;59.38;100925.72;4894777;29;46484;-81
2021/06/02 05:12:08;;;;;;;;;9.50;8.75;;;;;18.91;58.97;100934.09;4904666;29;45520;-80
2021/06/02 05:15:04;;;;;;;;;13.25;10.50;;;;;19.01;59.44;100927.19;4904882;28;45494;-80
2021/06/02 05:17:58;;;;;;;;;10.00;10.00;;;;;19.08;59.12;100928.50;4904965;28;45516;-79
2021/06/02 05:23:51;;;;;;;;;13.75;13.50;;;;;19.22;59.64;100938.25;4903892;29;45276;-79
2021/06/02 05:26:38;;;;;;;;;12.00;11.25;;;;;19.25;58.31;100931.88;4898983;28;45545;-79
2021/06/02 05:29:34;;;;;;;;;8.75;8.75;;;;;19.29;58.12;100946.69;4899596;29;45414;-79
2021/06/02 05:32:14;;;;;;;;;11.50;10.25;;;;;19.34;59.02;100939.25;4901654;29;46268;-79
2021/06/02 05:35:10;;;;;;;;;13.00;11.00;;;;;19.38;57.88;100947.03;4902876;29;45632;-78
2021/06/02 05:37:58;;;;;;;;;9.50;8.75;;;;;19.40;58.41;100940.66;4901998;28;45400;-78
2021/06/02 05:40:48;;;;;;;;;10.75;10.00;;;;;19.43;58.39;100936.94;4902220;29;45736;-78
2021/06/02 05:43:31;;;;;;;;;11.75;10.00;;;;;19.45;58.38;100945.66;4916512;28;47435;-79
2021/06/02 05:46:16;;;;;;;;;11.25;10.75;;;;;19.49;58.44;100951.63;4902380;29;45508;-79
2021/06/02 05:49:03;;;;;;;;;15.25;13.50;;;;;19.55;58.03;100962.75;4902567;28;45534;-79
2021/06/02 05:51:37;;;;;;;;;7.75;7.75;;;;;19.60;57.58;100958.91;4901202;29;45423;-79
2021/06/02 05:54:43;;;;;;;;;12.50;10.00;;;;;19.63;57.41;100953.38;4901603;29;48699;-79
2021/06/02 05:57:46;;;;;;;;;12.25;12.25;;;;;19.68;57.79;100957.41;4900730;29;45496;-79
2021/06/02 06:00:30;;;;;;;;;17.75;16.25;;;;;19.71;58.21;100959.03;4902144;28;45580;-79
2021/06/02 06:02:58;;;;;;;;;13.00;12.00;;;;;19.75;57.12;100965.00;4902296;28;46361;-79
2021/06/02 06:05:48;;;;;;;;;11.00;11.00;;;;;19.78;58.32;100956.78;4902501;29;45469;-78
2021/06/02 06:08:48;;;;;;;;;15.00;12.25;;;;;19.79;59.76;100959.34;4901323;29;45380;-78
2021/06/02 06:11:31;;;;;;;;;12.50;11.25;;;;;19.83;58.01;100965.31;4900605;29;45617;-80
2021/06/02 06:14:03;;;;;;;;;13.50;12.25;;;;;19.88;59.38;100963.19;4902152;28;45339;-79
2021/06/02 06:17:07;;;;;;;;;15.25;11.75;;;;;19.94;57.52;100963.72;4897155;28;46271;-79
2021/06/02 06:19:57;;;;;;;;;14.50;14.50;;;;;20.01;58.75;100963.19;4901734;29;45228;-79
2021/06/02 06:23:00;;;;;;;;;12.50;11.75;;;;;20.09;57.41;100965.31;4895207;28;45447;-80
2021/06/02 06:25:34;;;;;;;;;13.25;10.75;;;;;20.14;57.45;100967.69;4904375;28;45860;-80
2021/06/02 06:28:06;;;;;;;;;11.50;11.50;;;;;20.19;57.41;100967.38;4889023;29;46379;-80
2021/06/02 06:30:34;;;;;;;;;13.75;12.25;;;;;20.22;56.94;100965.31;4916591;28;45564;-80
2021/06/02 06:33:07;;;;;;;;;13.25;10.75;;;;;20.27;57.13;100966.84;4894705;28;45533;-80
2021/06/02 06:35:37;;;;;;;;;11.50;11.50;;;;;20.29;57.15;100954.22;4901034;29;45366;-80
2021/06/02 06:38:06;;;;;;;;;9.00;8.00;;;;;20.32;56.79;100967.38;4902335;28;45935;-80
2021/06/02 06:40:34;;;;;;;;;13.00;13.00;;;;;20.33;57.26;100967.25;4901930;28;45693;-80
2021/06/02 06:43:04;;;;;;;;;11.75;11.00;;;;;20.37;57.16;100961.69;4903444;28;45405;-80
2021/06/02 06:45:34;;;;;;;;;12.25;11.25;;;;;20.39;56.94;100955.28;4902187;28;45310;-81
2021/06/02 06:48:09;;;;;;;;;14.00;14.00;;;;;20.40;57.14;100967.66;4902668;28;45405;-80
2021/06/02 06:50:35;;;;;;;;;12.50;11.50;;;;;20.38;57.77;100974.91;4902221;28;45792;-80
2021/06/02 06:53:07;;;;;;;;;16.00;14.00;;;;;20.38;57.56;100974.06;4901577;29;45410;-80
2021/06/02 06:55:34;;;;;;;;;12.50;9.75;;;;;20.39;57.27;100968.63;4901294;29;45461;-80
2021/06/02 06:58:00;;;;;;;;;9.75;9.50;;;;;20.40;57.57;100966.78;4890889;29;46331;-81
2021/06/02 07:00:27;;;;;;;;;9.00;9.00;;;;;20.41;58.43;100968.50;4902632;28;45517;-81
2021/06/02 07:02:53;;;;;;;;;12.50;11.25;;;;;20.44;57.55;100973.63;4902266;29;45319;-80
2021/06/02 07:05:22;;;;;;;;;12.00;11.50;;;;;20.46;57.38;100975.25;4901912;28;45456;-80
2021/06/02 07:07:47;;;;;;;;;14.75;11.00;;;;;20.46;58.07;100972.56;4901430;29;47333;-80
2021/06/02 07:10:14;;;;;;;;;11.75;11.75;;;;;20.51;57.82;100968.72;4902326;28;45215;-80
2021/06/02 07:12:42;;;;;;;;;13.75;13.75;;;;;20.52;58.56;100981.09;4904439;28;45365;-80
2021/06/02 07:15:09;;;;;;;;;15.25;14.25;;;;;20.50;58.12;100981.19;4910220;28;45342;-80
2021/06/02 07:17:42;;;;;;;;;16.25;14.00;;;;;20.50;57.98;100983.00;4900784;29;47094;-80
2021/06/02 07:20:10;;;;;;;;;16.75;12.75;;;;;20.48;58.18;100977.78;4902736;28;45612;-80
2021/06/02 07:22:42;;;;;;;;;19.25;16.50;;;;;20.50;58.19;100986.53;4902603;28;45286;-80
2021/06/02 07:25:09;;;;;;;;;16.00;14.00;;;;;20.52;57.89;100981.94;4917030;28;47416;-80
2021/06/02 07:27:38;;;;;;;;;14.00;14.00;;;;;20.54;58.57;100980.03;4899719;28;45968;-80
2021/06/02 07:30:06;;;;;;;;;14.25;13.00;;;;;20.58;58.13;100986.00;4894212;28;45361;-80
2021/06/02 07:32:32;;;;;;;;;17.00;14.50;;;;;20.61;57.69;100976.91;4916267;28;45330;-80
2021/06/02 07:34:57;;;;;;;;;16.00;15.00;;;;;20.63;60.23;100983.84;4909276;28;45982;-80
2021/06/02 07:37:23;;;;;;;;;14.50;13.25;;;;;20.69;58.92;100983.38;4901917;29;45480;-80
2021/06/02 07:39:48;;;;;;;;;14.75;13.75;;;;;20.73;58.30;100989.38;4902034;28;45359;-80
2021/06/02 07:42:14;;;;;;;;;14.25;13.00;;;;;20.74;59.17;100991.06;4901591;28;45263;-80
2021/06/02 07:44:39;;;;;;;;;14.00;14.00;;;;;20.76;58.03;100994.50;4902046;28;45249;-80
2021/06/02 07:47:05;;;;;;;;;16.25;13.75;;;;;20.74;58.15;100985.72;4900146;29;48429;-80
2021/06/02 07:49:30;;;;;;;;;12.50;12.50;;;;;20.75;58.44;100991.91;4916044;28;45364;-80
2021/06/02 07:51:59;;;;;;;;;13.50;13.50;;;;;20.77;58.30;100989.97;4902028;28;45473;-81
2021/06/02 07:54:25;;;;;;;;;13.00;12.25;;;;;20.82;57.76;100993.19;4901239;28;45894;-81
2021/06/02 07:56:51;;;;;;;;;15.00;14.75;;;;;20.84;57.95;100991.25;4900171;29;47401;-81
2021/06/02 07:59:16;;;;;;;;;15.75;14.25;;;;;20.89;58.31;100994.44;4901884;29;45284;-80
2021/06/02 08:01:42;;;;;;;;;12.50;10.75;;;;;20.91;57.77;101005.84;4915984;28;45511;-81
2021/06/02 08:04:07;;;;;;;;;14.50;14.00;;;;;20.90;58.40;101005.97;4902078;28;45317;-80
2021/06/02 08:06:32;;;;;;;;;13.75;12.50;;;;;20.88;58.58;101005.25;4900258;29;46907;-81
2021/06/02 08:08:58;;;;;;;;;17.25;13.50;;;;;20.88;58.54;101003.44;4904085;29;45416;-80
2021/06/02 08:11:24;;;;;;;;;16.00;16.00;;;;;20.90;58.89;101005.97;4905267;29;45329;-81
2021/06/02 08:13:49;;;;;;;;;16.00;13.50;;;;;20.94;59.17;100995.94;4917750;28;47140;-80
2021/06/02 08:16:15;;;;;;;;;15.75;15.00;;;;;20.97;59.29;100998.34;4903840;28;45844;-80
2021/06/02 08:18:41;;;;;;;;;13.75;13.75;;;;;21.01;58.99;101005.22;4905647;28;45270;-80
2021/06/02 08:21:06;;;;;;;;;18.25;14.50;;;;;21.03;58.70;101011.31;4903548;28;45857;-80
2021/06/02 08:23:32;;;;;;;;;16.75;15.50;;;;;21.04;58.40;101013.00;4904699;28;45351;-80
2021/06/02 08:25:57;;;;;;;;;15.75;14.75;;;;;21.06;58.21;101015.59;4919424;28;48416;-81
2021/06/02 08:28:22;;;;;;;;;16.25;16.00;;;;;21.06;58.58;101013.78;4903925;28;45363;-81
2021/06/02 08:30:48;;;;;;;;;14.00;13.50;;;;;21.08;58.57;101019.84;4903287;29;45441;-81
2021/06/02 08:33:13;;;;;;;;;14.25;14.25;;;;;21.11;59.77;101019.59;4905118;29;45386;-83
2021/06/02 08:35:39;;;;;;;;;15.75;13.75;;;;;21.19;59.09;101016.38;4903383;28;46101;-78
2021/06/02 08:38:04;;;;;;;;;18.50;16.50;;;;;21.29;63.11;101019.19;4905055;28;45370;-77
2021/06/02 08:40:30;;;;;;;;;15.75;14.75;;;;;21.41;58.50;101016.59;4904974;28;45305;-78
2021/06/02 08:42:55;;;;;;;;;15.00;14.25;;;;;21.44;58.08;101019.03;4903859;28;45742;-78
2021/06/02 08:45:21;;;;;;;;;15.00;15.00;;;;;21.43;58.47;101014.66;4904806;28;45306;-78
2021/06/02 08:47:48;;;;;;;;;15.50;15.00;;;;;21.38;58.83;101016.81;4903433;29;45755;-78
2021/06/02 08:50:17;;;;;;;;;20.50;18.25;;;;;21.38;62.19;101016.81;4904225;28;45329;-78
2021/06/02 08:52:43;;;;;;;;;17.25;16.50;;;;;21.45;59.48;101023.41;4902639;29;45388;-78
2021/06/02 08:55:21;;;;;;;;;17.25;16.25;;;;;21.46;58.62;101025.09;4903196;29;47365;-78
2021/06/02 08:57:48;;;;;;;;;14.00;13.75;;;;;21.46;58.43;101017.06;4903387;28;45812;-78
2021/06/02 09:00:17;;;;;;;;;16.00;12.25;;;;;21.53;59.93;101015.66;4904238;28;45323;-78
2021/06/02 09:02:45;;;;;;;;;16.75;16.75;;;;;21.66;60.00;101017.38;4904296;28;45564;-78
2021/06/02 09:05:11;;;;;;;;;18.00;15.25;;;;;21.76;59.32;101023.75;4903936;28;45404;-77
2021/06/02 09:07:40;;;;;;;;;18.50;15.00;;;;;21.82;58.55;101017.09;4904230;28;45298;-78
2021/06/02 09:10:10;;;;;;;;;14.00;12.00;;;;;21.77;57.77;101014.78;4904220;28;45247;-78
2021/06/02 09:12:41;;;;;;;;;14.50;14.50;;;;;21.68;58.70;101012.81;4902277;29;45796;-78
2021/06/02 09:15:12;;;;;;;;;15.25;15.00;;;;;21.66;58.60;101009.38;4904252;29;45365;-79
2021/06/02 09:17:47;;;;;;;;;16.50;15.50;;;;;21.64;59.07;101014.00;4891556;28;45763;-79
2021/06/02 09:20:29;;;;;;;;;14.25;13.00;;;;;21.63;58.59;101006.94;4903536;29;45346;-79
2021/06/02 09:22:55;;;;;;;;;15.25;15.25;;;;;21.62;58.77;101010.59;4904106;29;45274;-79
2021/06/02 09:25:22;;;;;;;;;17.75;15.75;;;;;21.69;62.36;101019.84;4902552;29;47577;-79
2021/06/02 09:28:08;;;;;;;;;18.75;16.25;;;;;21.78;58.86;101016.44;4903084;28;45667;-79
2021/06/02 09:30:39;;;;;;;;;17.25;15.75;;;;;21.80;58.63;101022.53;4903999;28;45345;-79
2021/06/02 09:33:05;;;;;;;;;10.50;9.00;;;;;21.87;58.80;101027.47;4902296;29;46044;-78
2021/06/02 09:35:38;;;;;;;;;15.00;14.25;;;;;21.91;58.51;101020.91;4902814;29;47645;-79
2021/06/02 09:38:05;;;;;;;;;15.00;13.75;;;;;21.93;58.30;101021.63;4902239;29;45369;-79
2021/06/02 09:40:36;;;;;;;;;17.50;15.50;;;;;21.88;58.50;101021.13;4917054;28;45300;-78
2021/06/02 09:43:04;;;;;;;;;18.00;16.25;;;;;21.89;58.70;101022.84;4901890;28;45440;-79
2021/06/02 09:45:29;;;;;;;;;18.25;16.25;;;;;21.94;58.31;101025.16;4916829;28;47266;-79
2021/06/02 09:47:57;;;;;;;;;17.25;16.25;;;;;21.97;58.75;101025.78;4903102;28;45342;-79
2021/06/02 09:50:40;;;;;;;;;17.75;14.00;;;;;21.96;58.54;101018.72;4903055;28;45347;-79
2021/06/02 09:53:09;;;;;;;;;17.00;16.00;;;;;21.95;58.73;101022.38;4903463;28;45447;-79
2021/06/02 09:55:41;;;;;;;;;20.50;17.50;;;;;21.93;59.61;101024.28;4903124;28;45175;-79
2021/06/02 09:58:07;;;;;;;;;14.50;14.50;;;;;22.01;59.21;101021.91;4918148;28;45553;-79
2021/06/02 10:00:34;;;;;;;;;14.25;13.50;;;;;22.01;59.97;101021.91;4903244;28;45915;-78
2021/06/02 10:03:02;;;;;;;;;7.00;6.00;;;;;22.01;60.38;101031.75;4902575;29;45397;-79
2021/06/02 10:05:35;;;;;;;;;16.75;16.00;;;;;22.02;59.12;101031.63;4901653;29;47181;-79
2021/06/02 10:08:03;;;;;;;;;14.75;14.25;;;;;22.08;59.29;101027.59;4904303;28;45559;-79
2021/06/02 10:10:29;;;;;;;;;19.00;16.25;;;;;22.12;58.96;101026.41;4903833;28;45183;-78
2021/06/02 10:13:10;;;;;;;;;16.75;15.00;;;;;22.21;58.40;101030.19;4903935;28;45396;-78
2021/06/02 10:15:40;;;;;;;;;12.00;12.00;;;;;22.18;58.94;101035.78;4906364;28;46376;-79
2021/06/02 10:18:30;;;;;;;;;17.25;16.00;;;;;22.22;58.37;101025.69;4911820;28;45433;-79
2021/06/02 10:21:16;;;;;;;;;16.75;15.50;;;;;22.32;58.91;101028.50;4902478;29;45268;-79
2021/06/02 10:23:44;;;;;;;;;15.75;15.75;;;;;22.39;58.50;101036.88;4903396;29;45425;-79
2021/06/02 10:26:12;;;;;;;;;22.25;18.25;;;;;22.37;58.77;101032.50;4903662;29;45385;-79
2021/06/02 10:28:38;;;;;;;;;17.00;17.00;;;;;22.41;58.86;101037.63;4902433;29;45357;-79
2021/06/02 10:31:06;;;;;;;;;18.25;18.25;;;;;22.43;61.05;101041.88;4902999;28;45344;-79
2021/06/02 10:33:33;;;;;;;;;14.75;14.50;;;;;22.49;58.91;101049.41;4903385;28;45243;-78
2021/06/02 10:36:01;;;;;;;;;18.50;16.00;;;;;22.57;58.18;101045.31;4903752;28;46455;-78
2021/06/02 10:38:31;;;;;;;;;14.50;13.00;;;;;22.54;58.22;101049.06;4904131;28;45309;-78
2021/06/02 10:40:59;;;;;;;;;16.25;15.75;;;;;22.57;58.57;101047.97;4901786;29;45327;-79
2021/06/02 10:43:30;;;;;;;;;16.75;16.25;;;;;22.64;57.74;101049.19;4903595;28;45496;-79
2021/06/02 10:46:01;;;;;;;;;17.75;17.00;;;;;22.67;58.09;101051.59;4901712;28;46522;-79
2021/06/02 10:48:46;;;;;;;;;16.25;16.25;;;;;22.75;57.95;101051.03;4903265;28;45375;-78
2021/06/02 10:51:31;;;;;;;;;16.50;16.50;;;;;22.74;57.99;101054.69;4902207;28;45525;-79
2021/06/02 10:54:05;;;;;;;;;16.25;16.25;;;;;22.70;57.77;101061.25;4910191;28;46454;-78
2021/06/02 10:56:31;;;;;;;;;15.75;15.25;;;;;22.70;58.28;101061.25;4903118;29;46711;-78
2021/06/02 10:58:56;;;;;;;;;17.75;14.50;;;;;22.68;58.33;101060.50;4902516;28;45516;-79
2021/06/02 11:01:22;;;;;;;;;13.75;13.00;;;;;22.67;57.67;101061.47;4901892;28;45445;-79
2021/06/02 11:04:10;;;;;;;;;14.50;11.00;;;;;22.62;58.20;101067.19;4902301;29;46339;-79
2021/06/02 11:06:41;;;;;;;;;14.25;13.00;;;;;22.65;59.65;101060.72;4913421;28;47423;-78
2021/06/02 11:09:07;;;;;;;;;13.50;12.00;;;;;22.74;58.46;101056.50;4901741;29;45639;-79
2021/06/02 11:11:35;;;;;;;;;17.00;13.25;;;;;22.80;57.87;101059.53;4903064;28;45383;-78
2021/06/02 11:14:23;;;;;;;;;14.75;14.75;;;;;22.78;57.33;101056.13;4903006;28;45453;-79
2021/06/02 11:17:08;;;;;;;;;16.25;15.00;;;;;22.75;57.18;101066.25;4915851;28;47113;-79
2021/06/02 11:19:42;;;;;;;;;14.25;14.00;;;;;22.81;59.14;101063.09;4902337;28;45248;-79
2021/06/02 11:22:14;;;;;;;;;17.00;14.50;;;;;22.86;60.95;101068.94;4902961;29;45418;-79
2021/06/02 11:24:42;;;;;;;;;16.25;14.50;;;;;23.00;57.07;101069.63;4905723;28;45559;-78
2021/06/02 11:27:10;;;;;;;;;16.00;15.75;;;;;23.21;59.19;101058.13;4913498;28;48235;-78
2021/06/02 11:29:56;;;;;;;;;16.25;15.00;;;;;23.46;59.33;101056.94;4896129;29;45553;-78
2021/06/02 11:32:24;;;;;;;;;15.25;13.50;;;;;23.66;57.76;101064.31;4892197;28;45551;-78
2021/06/02 11:35:00;;;;;;;;;14.00;13.00;;;;;23.79;59.20;101059.63;4903093;29;45220;-78
2021/06/02 11:37:27;;;;;;;;;12.75;12.25;;;;;23.90;55.62;101053.31;4916823;28;47476;-79
2021/06/02 11:40:00;;;;;;;;;14.25;13.00;;;;;23.93;56.08;101061.13;4902783;28;45231;-78
2021/06/02 11:42:27;;;;;;;;;15.50;15.50;;;;;23.96;55.66;101065.38;4903138;28;45521;-79
2021/06/02 11:45:00;;;;;;;;;16.50;15.75;;;;;23.97;54.69;101068.91;4907298;28;45488;-79
2021/06/02 11:47:27;;;;;;;;;14.00;13.00;;;;;23.90;55.33;101056.00;4905887;28;46204;-79
2021/06/02 11:50:06;;;;;;;;;15.75;15.75;;;;;23.93;56.50;101060.25;4906294;28;45506;-79